Time;durP1;ratioP1;P1;durP2;ratioP2;P2;SDS_P1;SDS_P2;PMS_P1;PMS_P2;Temp;Humidity;BMP_temperature;BMP_pressure;BME280_temperature;BME280_humidity;BME280_pressure;Samples;Min_cycle;Max_cycle;Signal;HPM_P1;HPM_P2
2021/05/17 10:49:19;;;;;;;103.55;99.00;;;;;;;;;;5090956;28;20206;-64
2021/05/17 10:51:45;;;;;;;109.32;104.53;;;;;;;;;;5090637;28;20194;-68
2021/05/17 10:54:24;;;;;;;119.78;114.45;;;;;;;;;;5090633;28;20239;-68
2021/05/17 11:02:23;;;;;;;103.15;98.18;;;;;;;;;;5090587;28;20178;-68
2021/05/17 11:27:16;;;;;;;48.10;46.20;;;;;;;;;;5091035;27;20537;-67
2021/05/17 11:29:42;;;;;;;45.55;43.78;;;;;;;;;;5090923;28;20164;-68
2021/05/17 11:32:12;;;;;;;39.33;37.83;;;;;;;;;;5089695;28;20164;-68
2021/05/17 11:34:57;;;;;;;40.60;39.08;;;;;;;;;;5090486;28;20164;-68
2021/05/17 11:37:23;;;;;;;41.58;39.97;;;;;;;;;;5090377;28;20173;-68
2021/05/17 11:39:49;;;;;;;49.00;47.05;;;;;;;;;;5090708;28;20538;-68
2021/05/17 11:42:18;;;;;;;61.05;58.35;;;;;;;;;;5090638;28;20220;-68
2021/05/17 11:59:32;;;;;;;54.03;51.83;;;;;;;;;;5090967;28;20610;-68
2021/05/17 12:02:00;;;;;;;59.47;56.97;;;;;;;;;;5090898;28;20250;-69
2021/05/17 12:04:33;;;;;;;65.93;63.10;;;;;;;;;;5090828;28;20168;-69
2021/05/17 12:07:01;;;;;;;77.05;73.75;;;;;;;;;;5090783;28;20171;-69
2021/05/17 12:09:31;;;;;;;81.82;78.28;;;;;;;;;;5090695;28;20172;-69
2021/05/17 12:11:58;;;;;;;90.07;86.15;;;;;;;;;;5089414;28;20171;-69
2021/05/17 12:14:24;;;;;;;97.75;93.47;;;;;;;;;;5090675;28;20164;-69
2021/05/17 12:17:00;;;;;;;94.18;90.07;;;;;;;;;;5090654;28;20567;-68
2021/05/17 12:19:26;;;;;;;93.57;89.50;;;;;;;;;;5090498;28;20278;-68
2021/05/17 12:21:55;;;;;;;95.00;90.75;;;;;;;;;;5090457;28;20167;-68
2021/05/17 12:24:28;;;;;;;105.82;101.13;;;;;;;;;;5090450;28;20288;-67
2021/05/17 12:26:57;;;;;;;106.28;101.57;;;;;;;;;;5090447;28;20190;-67
2021/05/17 12:29:23;;;;;;;112.10;107.10;;;;;;;;;;5090409;28;20175;-67
2021/05/17 12:31:49;;;;;;;77.07;73.78;;;;;;;;;;5089052;28;20526;-67
2021/05/17 12:34:15;;;;;;;70.28;67.25;;;;;;;;;;5090224;28;20187;-66
2021/05/17 12:36:42;;;;;;;75.97;72.68;;;;;;;;;;5090207;28;20213;-67
2021/05/17 12:39:18;;;;;;;60.40;57.83;;;;;;;;;;5090085;28;20333;-67
2021/05/17 12:41:46;;;;;;;53.72;51.53;;;;;;;;;;5090169;28;20648;-66
2021/05/17 12:44:33;;;;;;;50.25;48.22;;;;;;;;;;5090048;28;20168;-67
2021/05/17 12:47:07;;;;;;;47.80;45.78;;;;;;;;;;5089940;28;20164;-66
2021/05/17 12:49:46;;;;;;;49.05;47.00;;;;;;;;;;5089918;28;20202;-67
2021/05/17 12:52:12;;;;;;;59.28;56.80;;;;;;;;;;5089932;28;20692;-67
2021/05/17 12:54:38;;;;;;;68.32;65.40;;;;;;;;;;5089934;28;20168;-67
2021/05/17 12:57:10;;;;;;;71.55;68.45;;;;;;;;;;5089613;28;20637;-67
2021/05/17 12:59:46;;;;;;;76.60;73.30;;;;;;;;;;5089805;28;20190;-66
2021/05/17 13:02:13;;;;;;;82.93;79.35;;;;;;;;;;5089796;28;20167;-68
2021/05/17 13:04:39;;;;;;;81.78;78.28;;;;;;;;;;5089704;28;20515;-68
2021/05/17 13:07:06;;;;;;;75.95;72.70;;;;;;;;;;5089764;28;20164;-68
2021/05/17 13:09:33;;;;;;;81.60;78.10;;;;;;;;;;5083730;28;20172;-68
2021/05/17 13:11:59;;;;;;;81.82;78.32;;;;;;;;;;5074781;28;20549;-68
2021/05/17 13:14:26;;;;;;;73.72;70.55;;;;;;;;;;5076095;28;20226;-68
2021/05/17 13:16:56;;;;;;;73.10;69.95;;;;;;;;;;5076051;28;20168;-68
2021/05/17 13:19:33;;;;;;;72.95;69.78;;;;;;;;;;5075992;28;20223;-68
2021/05/17 13:49:03;;;;;;;47.55;45.65;;;;;;;;;;5090953;28;20590;-71
2021/05/17 13:51:29;;;;;;;44.90;43.15;;;;;;;;;;5090842;28;20171;-72
2021/05/17 13:53:57;;;;;;;49.28;47.17;;;;;;;;;;5090852;28;20190;-72
2021/05/17 13:56:25;;;;;;;56.95;54.60;;;;;;;;;;5090754;28;20159;-72
2021/05/17 13:58:51;;;;;;;68.32;64.93;;;;;;;;;;5090920;28;20225;-71
2021/05/17 14:01:17;;;;;;;73.90;70.65;;;;;;;;;;5090686;28;20176;-72
2021/05/17 14:03:43;;;;;;;89.45;85.53;;;;;;;;;;5090747;28;20176;-72
2021/05/17 14:06:09;;;;;;;101.07;96.60;;;;;;;;;;5089272;28;20208;-71
2021/05/17 14:08:35;;;;;;;102.72;98.22;;;;;;;;;;5090535;28;20282;-71
2021/05/17 14:11:03;;;;;;;90.38;86.35;;;;;;;;;;5090579;28;20195;-70
2021/05/17 14:13:29;;;;;;;105.00;100.30;;;;;;;;;;5090537;28;20167;-71
2021/05/17 14:15:55;;;;;;;90.35;86.40;;;;;;;;;;5090425;28;20255;-71
2021/05/17 14:18:21;;;;;;;71.28;68.18;;;;;;;;;;5090377;28;20265;-71
2021/05/17 14:20:47;;;;;;;61.50;58.88;;;;;;;;;;5090288;28;20626;-71
2021/05/17 14:23:13;;;;;;;51.42;49.00;;;;;;;;;;5090279;28;20168;-72
2021/05/17 14:25:40;;;;;;;47.95;45.95;;;;;;;;;;5090271;28;20179;-71
2021/05/17 14:28:06;;;;;;;52.75;50.58;;;;;;;;;;5090028;28;20227;-68
2021/05/17 14:50:18;;;;;;;34.80;33.38;;;;;;;;;;5090930;27;20551;-70
2021/05/17 14:52:44;;;;;;;32.20;31.10;;;;;;;;;;5090917;28;20534;-68
2021/05/17 14:55:11;;;;;;;34.45;33.15;;;;;;;;;;5090867;28;20168;-70
2021/05/17 14:57:37;;;;;;;29.88;28.80;;;;;;;;;;5089549;28;20164;-70
2021/05/17 15:00:07;;;;;;;29.67;28.67;;;;;;;;;;5090773;28;20163;-71
2021/05/17 15:02:33;;;;;;;29.58;28.50;;;;;;;;;;5090673;28;20243;-71
2021/05/17 15:34:09;;;;;;;36.60;35.22;;;;;;;;;;5090891;27;20573;-66
2021/05/17 15:36:35;;;;;;;36.97;35.55;;;;;;;;;;5089582;28;20175;-67
2021/05/17 15:39:01;;;;;;;40.95;39.33;;;;;;;;;;5090782;28;20171;-67
2021/05/17 15:41:27;;;;;;;34.03;32.83;;;;;;;;;;5090766;28;20178;-67
2021/05/17 15:43:53;;;;;;;36.58;34.88;;;;;;;;;;5090729;28;20243;-67
2021/05/17 15:46:19;;;;;;;40.85;39.33;;;;;;;;;;5090707;28;20167;-67
2021/05/17 15:48:45;;;;;;;48.33;46.38;;;;;;;;;;5090694;28;20167;-67
2021/05/17 15:51:12;;;;;;;48.88;46.90;;;;;;;;;;5090588;28;20168;-67
